sensor_id;sensor_type;location;lat;lon;timestamp;P1;durP1;ratioP1;P2;durP2;ratioP2
36747;SDS011;22716;51.556;5.080;2023-07-24T00:02:19;4.07;;;3.63;;
36747;SDS011;22716;51.556;5.080;2023-07-24T00:04:48;5.53;;;4.70;;
36747;SDS011;22716;51.556;5.080;2023-07-24T00:07:17;5.03;;;4.25;;
36747;SDS011;22716;51.556;5.080;2023-07-24T00:09:48;4.60;;;4.07;;
36747;SDS011;22716;51.556;5.080;2023-07-24T00:12:18;5.05;;;4.55;;
36747;SDS011;22716;51.556;5.080;2023-07-24T00:14:46;4.90;;;4.40;;
36747;SDS011;22716;51.556;5.080;2023-07-24T00:17:16;5.97;;;4.00;;
36747;SDS011;22716;51.556;5.080;2023-07-24T00:19:44;5.57;;;4.30;;
36747;SDS011;22716;51.556;5.080;2023-07-24T00:22:13;7.22;;;5.00;;
36747;SDS011;22716;51.556;5.080;2023-07-24T00:24:42;5.10;;;4.57;;
36747;SDS011;22716;51.556;5.080;2023-07-24T00:27:13;6.90;;;5.57;;
36747;SDS011;22716;51.556;5.080;2023-07-24T00:29:42;5.68;;;4.30;;
36747;SDS011;22716;51.556;5.080;2023-07-24T00:32:11;5.55;;;4.63;;
36747;SDS011;22716;51.556;5.080;2023-07-24T00:34:40;6.35;;;3.90;;
36747;SDS011;22716;51.556;5.080;2023-07-24T00:37:09;5.80;;;4.88;;
36747;SDS011;22716;51.556;5.080;2023-07-24T00:39:38;9.60;;;4.65;;
36747;SDS011;22716;51.556;5.080;2023-07-24T00:42:07;19.67;;;6.10;;
36747;SDS011;22716;51.556;5.080;2023-07-24T00:44:38;7.22;;;4.22;;
36747;SDS011;22716;51.556;5.080;2023-07-24T00:47:07;7.70;;;4.28;;
36747;SDS011;22716;51.556;5.080;2023-07-24T00:49:37;4.00;;;3.63;;
36747;SDS011;22716;51.556;5.080;2023-07-24T00:52:06;5.22;;;3.67;;
36747;SDS011;22716;51.556;5.080;2023-07-24T00:54:36;5.63;;;4.28;;
36747;SDS011;22716;51.556;5.080;2023-07-24T00:57:06;10.73;;;4.50;;
36747;SDS011;22716;51.556;5.080;2023-07-24T00:59:38;5.68;;;3.75;;
36747;SDS011;22716;51.556;5.080;2023-07-24T01:02:07;6.35;;;3.90;;
36747;SDS011;22716;51.556;5.080;2023-07-24T01:04:36;4.53;;;4.05;;
36747;SDS011;22716;51.556;5.080;2023-07-24T01:07:05;5.15;;;4.07;;
36747;SDS011;22716;51.556;5.080;2023-07-24T01:09:34;6.60;;;4.03;;
36747;SDS011;22716;51.556;5.080;2023-07-24T01:12:04;7.82;;;4.28;;
36747;SDS011;22716;51.556;5.080;2023-07-24T01:14:47;5.53;;;4.50;;
36747;SDS011;22716;51.556;5.080;2023-07-24T01:17:23;4.82;;;3.55;;
36747;SDS011;22716;51.556;5.080;2023-07-24T01:19:54;5.78;;;4.22;;
36747;SDS011;22716;51.556;5.080;2023-07-24T01:22:34;6.85;;;4.18;;
36747;SDS011;22716;51.556;5.080;2023-07-24T01:25:10;5.10;;;4.07;;
36747;SDS011;22716;51.556;5.080;2023-07-24T01:27:49;6.55;;;4.03;;
36747;SDS011;22716;51.556;5.080;2023-07-24T01:30:18;6.23;;;3.83;;
36747;SDS011;22716;51.556;5.080;2023-07-24T01:32:48;4.32;;;3.83;;
36747;SDS011;22716;51.556;5.080;2023-07-24T01:35:17;4.45;;;4.05;;
36747;SDS011;22716;51.556;5.080;2023-07-24T01:37:46;6.18;;;3.63;;
36747;SDS011;22716;51.556;5.080;2023-07-24T01:40:16;4.47;;;3.90;;
36747;SDS011;22716;51.556;5.080;2023-07-24T01:42:46;4.05;;;3.42;;
36747;SDS011;22716;51.556;5.080;2023-07-24T01:45:17;6.23;;;4.00;;
36747;SDS011;22716;51.556;5.080;2023-07-24T01:47:46;6.87;;;4.07;;
36747;SDS011;22716;51.556;5.080;2023-07-24T01:50:15;6.95;;;3.63;;
36747;SDS011;22716;51.556;5.080;2023-07-24T01:52:44;5.70;;;4.47;;
36747;SDS011;22716;51.556;5.080;2023-07-24T01:55:14;4.90;;;4.40;;
36747;SDS011;22716;51.556;5.080;2023-07-24T01:57:43;5.32;;;3.67;;
36747;SDS011;22716;51.556;5.080;2023-07-24T02:00:14;6.03;;;4.10;;
36747;SDS011;22716;51.556;5.080;2023-07-24T02:02:43;4.90;;;3.65;;
36747;SDS011;22716;51.556;5.080;2023-07-24T02:05:12;4.38;;;3.50;;
36747;SDS011;22716;51.556;5.080;2023-07-24T02:07:41;5.95;;;3.83;;
36747;SDS011;22716;51.556;5.080;2023-07-24T02:10:09;7.72;;;3.95;;
36747;SDS011;22716;51.556;5.080;2023-07-24T02:12:38;4.70;;;3.53;;
36747;SDS011;22716;51.556;5.080;2023-07-24T02:15:08;8.32;;;3.92;;
36747;SDS011;22716;51.556;5.080;2023-07-24T02:17:40;5.03;;;3.80;;
36747;SDS011;22716;51.556;5.080;2023-07-24T02:20:09;3.70;;;3.25;;
36747;SDS011;22716;51.556;5.080;2023-07-24T02:22:38;4.82;;;3.80;;
36747;SDS011;22716;51.556;5.080;2023-07-24T02:25:07;5.07;;;3.00;;
36747;SDS011;22716;51.556;5.080;2023-07-24T02:27:37;4.05;;;2.90;;
36747;SDS011;22716;51.556;5.080;2023-07-24T02:30:06;4.90;;;2.28;;
36747;SDS011;22716;51.556;5.080;2023-07-24T02:32:35;3.55;;;2.47;;
36747;SDS011;22716;51.556;5.080;2023-07-24T02:35:08;4.03;;;2.47;;
36747;SDS011;22716;51.556;5.080;2023-07-24T02:37:36;3.90;;;2.55;;
36747;SDS011;22716;51.556;5.080;2023-07-24T02:40:06;2.17;;;1.98;;
36747;SDS011;22716;51.556;5.080;2023-07-24T02:42:36;3.13;;;2.60;;
36747;SDS011;22716;51.556;5.080;2023-07-24T02:45:05;3.60;;;3.20;;
36747;SDS011;22716;51.556;5.080;2023-07-24T02:47:36;4.30;;;2.17;;
36747;SDS011;22716;51.556;5.080;2023-07-24T02:50:08;2.55;;;2.22;;
36747;SDS011;22716;51.556;5.080;2023-07-24T02:52:37;2.67;;;1.90;;
36747;SDS011;22716;51.556;5.080;2023-07-24T02:55:07;3.42;;;2.17;;
36747;SDS011;22716;51.556;5.080;2023-07-24T02:57:36;2.17;;;1.77;;
36747;SDS011;22716;51.556;5.080;2023-07-24T03:00:05;4.65;;;2.42;;
36747;SDS011;22716;51.556;5.080;2023-07-24T03:02:35;3.83;;;2.47;;
36747;SDS011;22716;51.556;5.080;2023-07-24T03:05:05;2.53;;;2.28;;
36747;SDS011;22716;51.556;5.080;2023-07-24T03:07:37;2.75;;;2.30;;
36747;SDS011;22716;51.556;5.080;2023-07-24T03:10:06;5.30;;;3.00;;
36747;SDS011;22716;51.556;5.080;2023-07-24T03:12:36;2.87;;;2.40;;
36747;SDS011;22716;51.556;5.080;2023-07-24T03:15:05;3.38;;;2.65;;
36747;SDS011;22716;51.556;5.080;2023-07-24T03:17:35;4.68;;;2.75;;
36747;SDS011;22716;51.556;5.080;2023-07-24T03:20:12;4.23;;;2.90;;
36747;SDS011;22716;51.556;5.080;2023-07-24T03:22:43;4.85;;;2.95;;
36747;SDS011;22716;51.556;5.080;2023-07-24T03:25:13;4.53;;;2.85;;
36747;SDS011;22716;51.556;5.080;2023-07-24T03:27:41;4.00;;;3.60;;
36747;SDS011;22716;51.556;5.080;2023-07-24T03:30:10;5.27;;;3.47;;
36747;SDS011;22716;51.556;5.080;2023-07-24T03:32:39;4.22;;;3.10;;
36747;SDS011;22716;51.556;5.080;2023-07-24T03:35:10;4.55;;;4.05;;
36747;SDS011;22716;51.556;5.080;2023-07-24T03:37:39;3.27;;;2.97;;
36747;SDS011;22716;51.556;5.080;2023-07-24T03:40:08;5.43;;;3.27;;
36747;SDS011;22716;51.556;5.080;2023-07-24T03:42:39;5.53;;;3.90;;
36747;SDS011;22716;51.556;5.080;2023-07-24T03:45:08;5.05;;;3.50;;
36747;SDS011;22716;51.556;5.080;2023-07-24T03:47:37;7.93;;;4.45;;
36747;SDS011;22716;51.556;5.080;2023-07-24T03:50:06;4.35;;;3.92;;
36747;SDS011;22716;51.556;5.080;2023-07-24T03:52:38;3.97;;;3.63;;
36747;SDS011;22716;51.556;5.080;2023-07-24T03:55:07;5.72;;;3.85;;
36747;SDS011;22716;51.556;5.080;2023-07-24T03:57:36;4.85;;;3.70;;
36747;SDS011;22716;51.556;5.080;2023-07-24T04:00:06;5.30;;;3.85;;
36747;SDS011;22716;51.556;5.080;2023-07-24T04:02:36;8.25;;;3.53;;
36747;SDS011;22716;51.556;5.080;2023-07-24T04:05:05;4.75;;;3.72;;
36747;SDS011;22716;51.556;5.080;2023-07-24T04:07:34;5.95;;;3.90;;
36747;SDS011;22716;51.556;5.080;2023-07-24T04:10:06;5.00;;;4.50;;
36747;SDS011;22716;51.556;5.080;2023-07-24T04:12:37;4.70;;;4.13;;
36747;SDS011;22716;51.556;5.080;2023-07-24T04:15:07;4.78;;;4.00;;
36747;SDS011;22716;51.556;5.080;2023-07-24T04:17:36;7.70;;;4.43;;
36747;SDS011;22716;51.556;5.080;2023-07-24T04:20:07;5.82;;;3.90;;
36747;SDS011;22716;51.556;5.080;2023-07-24T04:22:37;5.05;;;3.42;;
36747;SDS011;22716;51.556;5.080;2023-07-24T04:25:09;4.73;;;3.83;;
36747;SDS011;22716;51.556;5.080;2023-07-24T04:27:38;4.30;;;3.80;;
36747;SDS011;22716;51.556;5.080;2023-07-24T04:30:07;5.33;;;4.30;;
36747;SDS011;22716;51.556;5.080;2023-07-24T04:32:37;5.07;;;4.47;;
36747;SDS011;22716;51.556;5.080;2023-07-24T04:35:06;7.53;;;4.60;;
36747;SDS011;22716;51.556;5.080;2023-07-24T04:37:36;6.03;;;4.70;;
36747;SDS011;22716;51.556;5.080;2023-07-24T04:40:05;6.90;;;4.90;;
36747;SDS011;22716;51.556;5.080;2023-07-24T04:42:38;5.33;;;4.50;;
36747;SDS011;22716;51.556;5.080;2023-07-24T04:45:07;5.57;;;3.93;;
36747;SDS011;22716;51.556;5.080;2023-07-24T04:47:37;6.63;;;5.07;;
36747;SDS011;22716;51.556;5.080;2023-07-24T04:50:06;6.80;;;5.33;;
36747;SDS011;22716;51.556;5.080;2023-07-24T04:52:36;5.60;;;4.30;;
36747;SDS011;22716;51.556;5.080;2023-07-24T04:55:05;5.97;;;4.40;;
36747;SDS011;22716;51.556;5.080;2023-07-24T04:57:37;6.13;;;4.83;;
36747;SDS011;22716;51.556;5.080;2023-07-24T05:00:07;9.13;;;4.83;;
36747;SDS011;22716;51.556;5.080;2023-07-24T05:02:37;7.17;;;4.77;;
36747;SDS011;22716;51.556;5.080;2023-07-24T05:05:06;5.88;;;4.75;;
36747;SDS011;22716;51.556;5.080;2023-07-24T05:07:36;6.40;;;4.17;;
36747;SDS011;22716;51.556;5.080;2023-07-24T05:10:05;8.43;;;4.87;;
36747;SDS011;22716;51.556;5.080;2023-07-24T05:12:40;5.03;;;3.92;;
36747;SDS011;22716;51.556;5.080;2023-07-24T05:15:10;7.40;;;5.07;;
36747;SDS011;22716;51.556;5.080;2023-07-24T05:17:42;7.40;;;4.55;;
36747;SDS011;22716;51.556;5.080;2023-07-24T05:20:11;5.72;;;4.85;;
36747;SDS011;22716;51.556;5.080;2023-07-24T05:22:40;10.95;;;6.00;;
36747;SDS011;22716;51.556;5.080;2023-07-24T05:25:12;6.35;;;4.57;;
36747;SDS011;22716;51.556;5.080;2023-07-24T05:27:41;7.32;;;5.03;;
36747;SDS011;22716;51.556;5.080;2023-07-24T05:30:10;6.65;;;5.20;;
36747;SDS011;22716;51.556;5.080;2023-07-24T05:32:40;10.10;;;5.43;;
36747;SDS011;22716;51.556;5.080;2023-07-24T05:35:09;8.80;;;6.20;;
36747;SDS011;22716;51.556;5.080;2023-07-24T05:37:38;11.53;;;6.40;;
36747;SDS011;22716;51.556;5.080;2023-07-24T05:40:07;7.57;;;6.17;;
36747;SDS011;22716;51.556;5.080;2023-07-24T05:42:39;8.60;;;6.07;;
36747;SDS011;22716;51.556;5.080;2023-07-24T05:45:10;8.65;;;5.90;;
36747;SDS011;22716;51.556;5.080;2023-07-24T05:47:40;7.33;;;4.90;;
36747;SDS011;22716;51.556;5.080;2023-07-24T05:50:09;8.60;;;5.93;;
36747;SDS011;22716;51.556;5.080;2023-07-24T05:52:39;8.50;;;6.00;;
36747;SDS011;22716;51.556;5.080;2023-07-24T05:55:08;6.60;;;5.07;;
36747;SDS011;22716;51.556;5.080;2023-07-24T05:57:40;7.75;;;5.13;;
36747;SDS011;22716;51.556;5.080;2023-07-24T06:00:09;9.80;;;5.70;;
36747;SDS011;22716;51.556;5.080;2023-07-24T06:02:39;5.68;;;4.53;;
36747;SDS011;22716;51.556;5.080;2023-07-24T06:05:08;6.60;;;5.90;;
36747;SDS011;22716;51.556;5.080;2023-07-24T06:07:36;7.38;;;5.38;;
36747;SDS011;22716;51.556;5.080;2023-07-24T06:10:05;5.27;;;4.77;;
36747;SDS011;22716;51.556;5.080;2023-07-24T06:12:35;7.07;;;5.25;;
36747;SDS011;22716;51.556;5.080;2023-07-24T06:15:07;8.15;;;4.93;;
36747;SDS011;22716;51.556;5.080;2023-07-24T06:17:37;6.90;;;5.15;;
36747;SDS011;22716;51.556;5.080;2023-07-24T06:20:07;7.43;;;5.33;;
36747;SDS011;22716;51.556;5.080;2023-07-24T06:22:36;8.17;;;5.83;;
36747;SDS011;22716;51.556;5.080;2023-07-24T06:25:06;8.25;;;5.82;;
36747;SDS011;22716;51.556;5.080;2023-07-24T06:27:36;9.02;;;6.25;;
36747;SDS011;22716;51.556;5.080;2023-07-24T06:30:07;10.37;;;6.27;;
36747;SDS011;22716;51.556;5.080;2023-07-24T06:32:36;6.75;;;5.13;;
36747;SDS011;22716;51.556;5.080;2023-07-24T06:35:06;7.80;;;6.17;;
36747;SDS011;22716;51.556;5.080;2023-07-24T06:37:35;8.38;;;4.97;;
36747;SDS011;22716;51.556;5.080;2023-07-24T06:40:05;8.43;;;5.22;;
36747;SDS011;22716;51.556;5.080;2023-07-24T06:42:35;8.30;;;5.10;;
36747;SDS011;22716;51.556;5.080;2023-07-24T06:45:04;7.27;;;4.70;;
36747;SDS011;22716;51.556;5.080;2023-07-24T06:47:36;5.78;;;4.72;;
36747;SDS011;22716;51.556;5.080;2023-07-24T06:50:05;6.97;;;5.15;;
36747;SDS011;22716;51.556;5.080;2023-07-24T06:52:35;6.22;;;4.28;;
36747;SDS011;22716;51.556;5.080;2023-07-24T06:55:05;15.07;;;4.20;;
36747;SDS011;22716;51.556;5.080;2023-07-24T06:57:34;6.10;;;3.88;;
36747;SDS011;22716;51.556;5.080;2023-07-24T07:00:04;7.27;;;4.83;;
36747;SDS011;22716;51.556;5.080;2023-07-24T07:02:39;7.87;;;4.77;;
36747;SDS011;22716;51.556;5.080;2023-07-24T07:05:08;6.03;;;4.82;;
36747;SDS011;22716;51.556;5.080;2023-07-24T07:07:37;8.17;;;4.50;;
36747;SDS011;22716;51.556;5.080;2023-07-24T07:10:07;7.97;;;6.50;;
36747;SDS011;22716;51.556;5.080;2023-07-24T07:12:37;6.20;;;4.80;;
36747;SDS011;22716;51.556;5.080;2023-07-24T07:15:06;8.60;;;5.90;;
36747;SDS011;22716;51.556;5.080;2023-07-24T07:17:39;7.30;;;5.60;;
36747;SDS011;22716;51.556;5.080;2023-07-24T07:20:08;7.68;;;5.13;;
36747;SDS011;22716;51.556;5.080;2023-07-24T07:22:37;5.70;;;5.10;;
36747;SDS011;22716;51.556;5.080;2023-07-24T07:25:06;6.35;;;5.47;;
36747;SDS011;22716;51.556;5.080;2023-07-24T07:27:35;7.77;;;6.70;;
36747;SDS011;22716;51.556;5.080;2023-07-24T07:30:05;5.87;;;5.10;;
36747;SDS011;22716;51.556;5.080;2023-07-24T07:32:35;7.90;;;5.13;;
36747;SDS011;22716;51.556;5.080;2023-07-24T07:35:07;7.32;;;5.18;;
36747;SDS011;22716;51.556;5.080;2023-07-24T07:37:36;7.43;;;5.03;;
36747;SDS011;22716;51.556;5.080;2023-07-24T07:40:05;8.00;;;6.60;;
36747;SDS011;22716;51.556;5.080;2023-07-24T07:42:35;6.68;;;5.97;;
36747;SDS011;22716;51.556;5.080;2023-07-24T07:45:05;6.30;;;5.00;;
36747;SDS011;22716;51.556;5.080;2023-07-24T07:47:34;6.18;;;5.57;;
36747;SDS011;22716;51.556;5.080;2023-07-24T07:50:03;10.10;;;6.57;;
36747;SDS011;22716;51.556;5.080;2023-07-24T07:52:35;11.52;;;6.10;;
36747;SDS011;22716;51.556;5.080;2023-07-24T07:55:04;6.70;;;5.82;;
36747;SDS011;22716;51.556;5.080;2023-07-24T07:57:34;8.05;;;7.13;;
36747;SDS011;22716;51.556;5.080;2023-07-24T08:00:04;8.07;;;6.43;;
36747;SDS011;22716;51.556;5.080;2023-07-24T08:02:34;7.20;;;6.50;;
36747;SDS011;22716;51.556;5.080;2023-07-24T08:05:05;7.07;;;6.38;;
36747;SDS011;22716;51.556;5.080;2023-07-24T08:07:38;7.30;;;6.43;;
36747;SDS011;22716;51.556;5.080;2023-07-24T08:10:08;9.68;;;6.40;;
36747;SDS011;22716;51.556;5.080;2023-07-24T08:12:40;8.32;;;7.32;;
36747;SDS011;22716;51.556;5.080;2023-07-24T08:15:09;7.93;;;6.43;;
36747;SDS011;22716;51.556;5.080;2023-07-24T08:17:38;7.88;;;7.07;;
36747;SDS011;22716;51.556;5.080;2023-07-24T08:20:07;11.32;;;7.38;;
36747;SDS011;22716;51.556;5.080;2023-07-24T08:22:40;7.57;;;6.78;;
36747;SDS011;22716;51.556;5.080;2023-07-24T08:25:09;8.38;;;7.28;;
36747;SDS011;22716;51.556;5.080;2023-07-24T08:27:38;16.85;;;7.95;;
36747;SDS011;22716;51.556;5.080;2023-07-24T08:30:07;10.63;;;6.85;;
36747;SDS011;22716;51.556;5.080;2023-07-24T08:32:36;10.40;;;8.45;;
36747;SDS011;22716;51.556;5.080;2023-07-24T08:35:05;7.75;;;6.93;;
36747;SDS011;22716;51.556;5.080;2023-07-24T08:37:34;8.60;;;7.22;;
36747;SDS011;22716;51.556;5.080;2023-07-24T08:40:07;9.40;;;7.27;;
36747;SDS011;22716;51.556;5.080;2023-07-24T08:42:38;10.23;;;7.70;;
36747;SDS011;22716;51.556;5.080;2023-07-24T08:45:09;19.40;;;9.23;;
36747;SDS011;22716;51.556;5.080;2023-07-24T08:47:41;12.03;;;7.97;;
36747;SDS011;22716;51.556;5.080;2023-07-24T08:50:11;13.57;;;7.97;;
36747;SDS011;22716;51.556;5.080;2023-07-24T08:52:41;9.67;;;7.77;;
36747;SDS011;22716;51.556;5.080;2023-07-24T08:55:15;10.18;;;7.05;;
36747;SDS011;22716;51.556;5.080;2023-07-24T08:57:43;10.13;;;6.57;;
36747;SDS011;22716;51.556;5.080;2023-07-24T09:00:13;8.37;;;6.83;;
36747;SDS011;22716;51.556;5.080;2023-07-24T09:02:42;8.93;;;7.00;;
36747;SDS011;22716;51.556;5.080;2023-07-24T09:05:11;25.42;;;14.32;;
36747;SDS011;22716;51.556;5.080;2023-07-24T09:07:41;17.97;;;10.80;;
36747;SDS011;22716;51.556;5.080;2023-07-24T09:10:10;25.35;;;14.40;;
36747;SDS011;22716;51.556;5.080;2023-07-24T09:12:44;13.93;;;9.13;;
36747;SDS011;22716;51.556;5.080;2023-07-24T09:15:12;17.13;;;11.90;;
36747;SDS011;22716;51.556;5.080;2023-07-24T09:17:48;23.02;;;12.93;;
36747;SDS011;22716;51.556;5.080;2023-07-24T09:20:18;20.80;;;11.77;;
36747;SDS011;22716;51.556;5.080;2023-07-24T09:22:49;11.00;;;7.97;;
36747;SDS011;22716;51.556;5.080;2023-07-24T09:25:28;11.80;;;8.65;;
36747;SDS011;22716;51.556;5.080;2023-07-24T09:28:01;15.23;;;10.23;;
36747;SDS011;22716;51.556;5.080;2023-07-24T09:30:37;17.38;;;12.68;;
36747;SDS011;22716;51.556;5.080;2023-07-24T09:33:07;14.60;;;7.90;;
36747;SDS011;22716;51.556;5.080;2023-07-24T09:35:36;11.65;;;8.00;;
36747;SDS011;22716;51.556;5.080;2023-07-24T09:38:05;7.18;;;6.47;;
36747;SDS011;22716;51.556;5.080;2023-07-24T09:40:39;8.07;;;7.07;;
36747;SDS011;22716;51.556;5.080;2023-07-24T09:43:17;7.55;;;6.68;;
36747;SDS011;22716;51.556;5.080;2023-07-24T09:45:47;9.50;;;7.22;;
36747;SDS011;22716;51.556;5.080;2023-07-24T09:48:18;12.90;;;9.23;;
36747;SDS011;22716;51.556;5.080;2023-07-24T09:50:48;10.05;;;7.20;;
36747;SDS011;22716;51.556;5.080;2023-07-24T09:53:24;7.60;;;6.65;;
36747;SDS011;22716;51.556;5.080;2023-07-24T09:56:00;8.75;;;6.65;;
36747;SDS011;22716;51.556;5.080;2023-07-24T09:58:34;7.10;;;6.40;;
36747;SDS011;22716;51.556;5.080;2023-07-24T10:01:05;14.98;;;7.60;;
36747;SDS011;22716;51.556;5.080;2023-07-24T10:03:35;8.48;;;6.32;;
36747;SDS011;22716;51.556;5.080;2023-07-24T10:06:07;15.15;;;9.20;;
36747;SDS011;22716;51.556;5.080;2023-07-24T10:08:40;10.27;;;7.13;;
36747;SDS011;22716;51.556;5.080;2023-07-24T10:11:11;9.20;;;6.25;;
36747;SDS011;22716;51.556;5.080;2023-07-24T10:13:44;8.43;;;6.35;;
36747;SDS011;22716;51.556;5.080;2023-07-24T10:16:14;7.85;;;7.00;;
36747;SDS011;22716;51.556;5.080;2023-07-24T10:18:44;9.70;;;6.88;;
36747;SDS011;22716;51.556;5.080;2023-07-24T10:21:14;8.33;;;7.40;;
36747;SDS011;22716;51.556;5.080;2023-07-24T10:23:43;8.93;;;6.45;;
36747;SDS011;22716;51.556;5.080;2023-07-24T10:26:14;17.37;;;10.60;;
36747;SDS011;22716;51.556;5.080;2023-07-24T10:28:48;8.00;;;6.43;;
36747;SDS011;22716;51.556;5.080;2023-07-24T10:31:21;8.10;;;6.63;;
36747;SDS011;22716;51.556;5.080;2023-07-24T10:33:52;31.80;;;16.90;;
36747;SDS011;22716;51.556;5.080;2023-07-24T10:36:22;35.00;;;19.50;;
36747;SDS011;22716;51.556;5.080;2023-07-24T10:38:52;18.23;;;11.03;;
36747;SDS011;22716;51.556;5.080;2023-07-24T10:41:22;10.73;;;7.43;;
36747;SDS011;22716;51.556;5.080;2023-07-24T10:44:05;13.52;;;9.82;;
36747;SDS011;22716;51.556;5.080;2023-07-24T10:46:37;13.30;;;9.80;;
36747;SDS011;22716;51.556;5.080;2023-07-24T10:49:08;44.20;;;22.47;;
36747;SDS011;22716;51.556;5.080;2023-07-24T10:51:38;11.67;;;9.43;;
36747;SDS011;22716;51.556;5.080;2023-07-24T10:54:07;15.52;;;11.70;;
36747;SDS011;22716;51.556;5.080;2023-07-24T10:56:36;13.23;;;9.73;;
36747;SDS011;22716;51.556;5.080;2023-07-24T10:59:08;11.20;;;9.38;;
36747;SDS011;22716;51.556;5.080;2023-07-24T11:01:36;9.50;;;7.87;;
36747;SDS011;22716;51.556;5.080;2023-07-24T11:04:06;10.47;;;8.87;;
36747;SDS011;22716;51.556;5.080;2023-07-24T11:06:38;23.35;;;13.20;;
36747;SDS011;22716;51.556;5.080;2023-07-24T11:09:07;9.23;;;8.25;;
36747;SDS011;22716;51.556;5.080;2023-07-24T11:11:35;9.67;;;8.70;;
36747;SDS011;22716;51.556;5.080;2023-07-24T11:14:04;11.05;;;7.60;;
36747;SDS011;22716;51.556;5.080;2023-07-24T11:16:47;7.93;;;6.90;;
36747;SDS011;22716;51.556;5.080;2023-07-24T11:19:22;6.57;;;5.93;;
36747;SDS011;22716;51.556;5.080;2023-07-24T11:21:51;6.27;;;5.63;;
36747;SDS011;22716;51.556;5.080;2023-07-24T11:24:20;9.68;;;7.03;;
36747;SDS011;22716;51.556;5.080;2023-07-24T11:26:51;7.23;;;6.17;;
36747;SDS011;22716;51.556;5.080;2023-07-24T11:29:23;9.30;;;6.55;;
36747;SDS011;22716;51.556;5.080;2023-07-24T11:31:53;8.33;;;5.77;;
36747;SDS011;22716;51.556;5.080;2023-07-24T11:34:22;6.27;;;5.50;;
36747;SDS011;22716;51.556;5.080;2023-07-24T11:36:51;8.02;;;6.18;;
36747;SDS011;22716;51.556;5.080;2023-07-24T11:39:21;8.97;;;6.37;;
36747;SDS011;22716;51.556;5.080;2023-07-24T11:41:48;7.73;;;6.40;;
36747;SDS011;22716;51.556;5.080;2023-07-24T11:44:26;10.30;;;7.87;;
36747;SDS011;22716;51.556;5.080;2023-07-24T11:47:02;8.40;;;5.97;;
36747;SDS011;22716;51.556;5.080;2023-07-24T11:49:32;6.47;;;5.15;;
36747;SDS011;22716;51.556;5.080;2023-07-24T11:52:01;6.03;;;5.03;;
36747;SDS011;22716;51.556;5.080;2023-07-24T11:54:33;7.88;;;6.43;;
36747;SDS011;22716;51.556;5.080;2023-07-24T11:57:03;7.67;;;6.27;;
36747;SDS011;22716;51.556;5.080;2023-07-24T11:59:45;6.70;;;5.53;;
36747;SDS011;22716;51.556;5.080;2023-07-24T12:02:14;6.77;;;6.07;;
36747;SDS011;22716;51.556;5.080;2023-07-24T12:04:42;9.27;;;6.30;;
36747;SDS011;22716;51.556;5.080;2023-07-24T12:07:11;12.37;;;6.33;;
36747;SDS011;22716;51.556;5.080;2023-07-24T12:09:41;6.90;;;4.73;;
36747;SDS011;22716;51.556;5.080;2023-07-24T12:12:18;7.37;;;5.90;;
36747;SDS011;22716;51.556;5.080;2023-07-24T12:14:50;5.90;;;5.00;;
36747;SDS011;22716;51.556;5.080;2023-07-24T12:17:18;7.20;;;4.87;;
36747;SDS011;22716;51.556;5.080;2023-07-24T12:19:48;6.77;;;4.77;;
36747;SDS011;22716;51.556;5.080;2023-07-24T12:22:17;9.27;;;5.70;;
36747;SDS011;22716;51.556;5.080;2023-07-24T12:24:45;8.63;;;6.73;;
36747;SDS011;22716;51.556;5.080;2023-07-24T12:27:15;8.57;;;5.60;;
36747;SDS011;22716;51.556;5.080;2023-07-24T12:29:41;11.30;;;7.60;;
36747;SDS011;22716;51.556;5.080;2023-07-24T12:32:13;11.20;;;4.32;;
36747;SDS011;22716;51.556;5.080;2023-07-24T12:34:42;16.55;;;10.57;;
36747;SDS011;22716;51.556;5.080;2023-07-24T12:37:12;7.38;;;5.38;;
36747;SDS011;22716;51.556;5.080;2023-07-24T12:39:41;25.20;;;11.93;;
36747;SDS011;22716;51.556;5.080;2023-07-24T12:42:10;8.53;;;5.13;;
36747;SDS011;22716;51.556;5.080;2023-07-24T12:44:41;11.90;;;5.47;;
36747;SDS011;22716;51.556;5.080;2023-07-24T12:47:13;10.20;;;7.63;;
36747;SDS011;22716;51.556;5.080;2023-07-24T12:49:42;6.70;;;4.97;;
36747;SDS011;22716;51.556;5.080;2023-07-24T12:52:12;6.43;;;5.73;;
36747;SDS011;22716;51.556;5.080;2023-07-24T12:54:42;10.38;;;6.10;;
36747;SDS011;22716;51.556;5.080;2023-07-24T12:57:11;31.37;;;12.03;;
36747;SDS011;22716;51.556;5.080;2023-07-24T12:59:41;72.45;;;31.27;;
36747;SDS011;22716;51.556;5.080;2023-07-24T13:02:13;19.93;;;9.47;;
36747;SDS011;22716;51.556;5.080;2023-07-24T13:04:42;15.00;;;9.10;;
36747;SDS011;22716;51.556;5.080;2023-07-24T13:07:11;17.20;;;9.13;;
36747;SDS011;22716;51.556;5.080;2023-07-24T13:09:41;11.80;;;7.40;;
36747;SDS011;22716;51.556;5.080;2023-07-24T13:12:10;9.20;;;6.00;;
36747;SDS011;22716;51.556;5.080;2023-07-24T13:14:40;12.73;;;7.37;;
36747;SDS011;22716;51.556;5.080;2023-07-24T13:17:13;9.87;;;5.67;;
36747;SDS011;22716;51.556;5.080;2023-07-24T13:19:42;18.50;;;8.43;;
36747;SDS011;22716;51.556;5.080;2023-07-24T13:22:11;18.70;;;9.67;;
36747;SDS011;22716;51.556;5.080;2023-07-24T13:24:40;23.15;;;9.27;;
36747;SDS011;22716;51.556;5.080;2023-07-24T13:27:09;20.88;;;9.50;;
36747;SDS011;22716;51.556;5.080;2023-07-24T13:29:38;25.57;;;12.17;;
36747;SDS011;22716;51.556;5.080;2023-07-24T13:32:08;23.97;;;10.60;;
36747;SDS011;22716;51.556;5.080;2023-07-24T13:34:39;16.67;;;8.13;;
36747;SDS011;22716;51.556;5.080;2023-07-24T13:37:08;12.53;;;6.77;;
36747;SDS011;22716;51.556;5.080;2023-07-24T13:39:37;18.20;;;8.40;;
36747;SDS011;22716;51.556;5.080;2023-07-24T13:42:06;12.63;;;7.10;;
36747;SDS011;22716;51.556;5.080;2023-07-24T13:44:35;12.70;;;6.97;;
36747;SDS011;22716;51.556;5.080;2023-07-24T13:47:04;8.80;;;4.40;;
36747;SDS011;22716;51.556;5.080;2023-07-24T13:49:33;10.32;;;5.18;;
36747;SDS011;22716;51.556;5.080;2023-07-24T13:52:06;4.75;;;3.83;;
36747;SDS011;22716;51.556;5.080;2023-07-24T13:54:35;7.93;;;4.30;;
36747;SDS011;22716;51.556;5.080;2023-07-24T13:57:04;11.43;;;6.67;;
36747;SDS011;22716;51.556;5.080;2023-07-24T13:59:34;16.90;;;8.27;;
36747;SDS011;22716;51.556;5.080;2023-07-24T14:02:04;14.87;;;7.87;;
36747;SDS011;22716;51.556;5.080;2023-07-24T14:04:33;19.43;;;9.97;;
36747;SDS011;22716;51.556;5.080;2023-07-24T14:07:02;16.00;;;7.60;;
36747;SDS011;22716;51.556;5.080;2023-07-24T14:09:35;13.18;;;6.63;;
36747;SDS011;22716;51.556;5.080;2023-07-24T14:12:04;12.80;;;4.18;;
36747;SDS011;22716;51.556;5.080;2023-07-24T14:14:34;5.57;;;4.37;;
36747;SDS011;22716;51.556;5.080;2023-07-24T14:17:04;10.60;;;4.53;;
36747;SDS011;22716;51.556;5.080;2023-07-24T14:19:33;7.10;;;3.90;;
36747;SDS011;22716;51.556;5.080;2023-07-24T14:22:05;8.63;;;5.10;;
36747;SDS011;22716;51.556;5.080;2023-07-24T14:24:34;8.85;;;4.45;;
36747;SDS011;22716;51.556;5.080;2023-07-24T14:27:03;5.90;;;3.63;;
36747;SDS011;22716;51.556;5.080;2023-07-24T14:29:32;7.13;;;4.72;;
36747;SDS011;22716;51.556;5.080;2023-07-24T14:32:01;10.43;;;5.33;;
36747;SDS011;22716;51.556;5.080;2023-07-24T14:34:30;5.88;;;4.00;;
36747;SDS011;22716;51.556;5.080;2023-07-24T14:36:59;7.60;;;4.93;;
36747;SDS011;22716;51.556;5.080;2023-07-24T14:39:30;13.63;;;7.57;;
36747;SDS011;22716;51.556;5.080;2023-07-24T14:41:59;7.15;;;4.15;;
36747;SDS011;22716;51.556;5.080;2023-07-24T14:44:28;9.55;;;4.50;;
36747;SDS011;22716;51.556;5.080;2023-07-24T14:46:58;6.28;;;3.80;;
36747;SDS011;22716;51.556;5.080;2023-07-24T14:49:29;10.05;;;5.97;;
36747;SDS011;22716;51.556;5.080;2023-07-24T14:51:58;7.60;;;5.05;;
36747;SDS011;22716;51.556;5.080;2023-07-24T14:54:30;6.28;;;4.28;;
36747;SDS011;22716;51.556;5.080;2023-07-24T14:56:59;6.60;;;5.47;;
36747;SDS011;22716;51.556;5.080;2023-07-24T14:59:28;7.40;;;5.07;;
36747;SDS011;22716;51.556;5.080;2023-07-24T15:01:57;13.60;;;8.13;;